Time;durP1;ratioP1;P1;durP2;ratioP2;P2;SDS_P1;SDS_P2;PMS_P1;PMS_P2;Temp;Humidity;BMP_temperature;BMP_pressure;BME280_temperature;BME280_humidity;BME280_pressure;Samples;Min_cycle;Max_cycle;Signal;HPM_P1;HPM_P2
2021/01/12 00:02:31;;;;;;;6.90;4.77;;;;;;;;;;10295676;28;20122;-64
2021/01/12 00:07:28;;;;;;;9.27;4.77;;;;;;;;;;10299659;28;20037;-64
2021/01/12 00:12:26;;;;;;;6.40;3.80;;;;;;;;;;10299836;28;20037;-64
2021/01/12 00:17:23;;;;;;;10.37;3.47;;;;;;;;;;10297373;28;20026;-63
2021/01/12 00:22:21;;;;;;;9.83;4.20;;;;;;;;;;10302971;28;20048;-63
2021/01/12 00:27:23;;;;;;;6.53;3.80;;;;;;;;;;10300947;28;20041;-64
2021/01/12 00:32:21;;;;;;;11.18;3.60;;;;;;;;;;10302187;28;20037;-64
2021/01/12 00:37:18;;;;;;;;;;;;;;;;;;10302979;28;20033;-63
2021/01/12 00:42:16;;;;;;;5.10;3.00;;;;;;;;;;10298092;28;19920;-63
2021/01/12 00:47:14;;;;;;;4.60;3.53;;;;;;;;;;10290904;28;20048;-64
2021/01/12 00:52:12;;;;;;;5.87;2.93;;;;;;;;;;10289740;28;20099;-63
2021/01/12 00:57:09;;;;;;;3.83;2.80;;;;;;;;;;10285916;28;20061;-64
2021/01/12 01:02:06;;;;;;;9.50;3.57;;;;;;;;;;10282881;28;20030;-65
2021/01/12 01:07:04;;;;;;;5.70;2.60;;;;;;;;;;10276931;28;20033;-64
2021/01/12 01:12:01;;;;;;;5.30;2.03;;;;;;;;;;10276377;28;20033;-65
2021/01/12 01:16:59;;;;;;;2.20;1.30;;;;;;;;;;10287065;28;20065;-65
2021/01/12 01:21:56;;;;;;;4.03;2.43;;;;;;;;;;10286036;28;20091;-65
2021/01/12 01:26:57;;;;;;;5.63;2.20;;;;;;;;;;10279153;28;20033;-65
2021/01/12 01:31:55;;;;;;;6.45;2.08;;;;;;;;;;10276246;28;20125;-64
2021/01/12 01:36:57;;;;;;;4.23;1.53;;;;;;;;;;10282270;28;20614;-64
2021/01/12 01:41:58;;;;;;;2.45;1.83;;;;;;;;;;10281302;28;20033;-64
2021/01/12 01:46:56;;;;;;;7.45;1.60;;;;;;;;;;10277905;28;20041;-64
2021/01/12 01:51:54;;;;;;;6.17;2.03;;;;;;;;;;10282753;28;20568;-64
2021/01/12 01:56:51;;;;;;;6.75;2.08;;;;;;;;;;10283631;28;20045;-65
2021/01/12 02:01:49;;;;;;;2.70;1.53;;;;;;;;;;10280956;28;20046;-64
2021/01/12 02:06:47;;;;;;;2.17;1.23;;;;;;;;;;10271745;28;20370;-64
2021/01/12 02:11:44;;;;;;;;;;;;;;;;;;10280887;28;20092;-64
2021/01/12 02:16:44;;;;;;;2.65;1.80;;;;;;;;;;10284422;28;20283;-65
2021/01/12 02:21:45;;;;;;;1.35;1.25;;;;;;;;;;10279811;28;20586;-64
2021/01/12 02:26:42;;;;;;;4.25;2.47;;;;;;;;;;10277044;28;20569;-65
2021/01/12 02:31:40;;;;;;;5.27;1.10;;;;;;;;;;10286316;28;20038;-64
2021/01/12 02:36:38;;;;;;;5.32;1.85;;;;;;;;;;10268610;28;20708;-64
2021/01/12 02:41:36;;;;;;;5.40;1.83;;;;;;;;;;10272977;28;20088;-65
2021/01/12 02:46:33;;;;;;;3.67;1.63;;;;;;;;;;10275810;28;20041;-64
2021/01/12 02:51:34;;;;;;;1.33;1.20;;;;;;;;;;10290507;28;20099;-64
2021/01/12 02:56:31;;;;;;;2.67;1.50;;;;;;;;;;10277080;28;20041;-64
2021/01/12 03:01:29;;;;;;;3.87;1.40;;;;;;;;;;10263872;28;20044;-64
2021/01/12 03:06:26;;;;;;;1.50;0.70;;;;;;;;;;10286407;28;20076;-63
2021/01/12 03:11:25;;;;;;;4.27;1.50;;;;;;;;;;10280661;28;20037;-66
2021/01/12 03:16:22;;;;;;;3.58;1.90;;;;;;;;;;10284595;28;20038;-65
2021/01/12 03:21:19;;;;;;;7.07;1.87;;;;;;;;;;10283962;28;20044;-64
2021/01/12 03:26:23;;;;;;;2.27;0.80;;;;;;;;;;10290205;28;20091;-65
2021/01/12 03:31:20;;;;;;;1.58;0.95;;;;;;;;;;10285426;28;20095;-64
2021/01/12 03:36:18;;;;;;;2.07;0.97;;;;;;;;;;10292301;28;20084;-64
2021/01/12 03:41:15;;;;;;;0.50;0.50;;;;;;;;;;10270165;28;20041;-63
2021/01/12 03:46:13;;;;;;;3.27;1.03;;;;;;;;;;10290528;28;20041;-65
2021/01/12 03:51:10;;;;;;;5.97;0.43;;;;;;;;;;10281954;28;20748;-63
2021/01/12 03:56:07;;;;;;;6.20;0.80;;;;;;;;;;10294864;28;20057;-63
2021/01/12 04:01:05;;;;;;;1.37;0.70;;;;;;;;;;10294715;28;20415;-64
2021/01/12 04:06:03;;;;;;;3.17;0.90;;;;;;;;;;10284920;28;20052;-63
2021/01/12 04:11:01;;;;;;;10.43;1.52;;;;;;;;;;10267697;28;20049;-64
2021/01/12 04:16:00;;;;;;;5.88;1.52;;;;;;;;;;10278221;28;22267;-65
2021/01/12 04:20:58;;;;;;;9.57;1.80;;;;;;;;;;10278893;28;20031;-64
2021/01/12 04:25:55;;;;;;;5.23;1.33;;;;;;;;;;10296123;28;20045;-64
2021/01/12 04:30:52;;;;;;;9.80;1.87;;;;;;;;;;10281788;28;20077;-65
2021/01/12 04:35:50;;;;;;;4.90;1.33;;;;;;;;;;10272161;28;20481;-64
2021/01/12 04:40:48;;;;;;;4.27;0.70;;;;;;;;;;10296777;28;20479;-65
2021/01/12 04:45:45;;;;;;;2.67;0.93;;;;;;;;;;10294983;28;20067;-64
2021/01/12 04:50:42;;;;;;;7.73;1.27;;;;;;;;;;10278465;28;20041;-65
2021/01/12 04:55:43;;;;;;;4.53;0.93;;;;;;;;;;10254252;28;20038;-64
2021/01/12 05:00:41;;;;;;;3.05;1.23;;;;;;;;;;10264463;28;20041;-65
2021/01/12 05:05:39;;;;;;;2.97;0.50;;;;;;;;;;10268500;28;20182;-66
2021/01/12 05:10:40;;;;;;;4.10;1.17;;;;;;;;;;10265714;28;20049;-65
2021/01/12 05:15:38;;;;;;;1.98;0.50;;;;;;;;;;10254587;28;20052;-64
2021/01/12 05:20:42;;;;;;;4.78;1.00;;;;;;;;;;10265486;28;20037;-64
2021/01/12 05:25:40;;;;;;;5.07;0.80;;;;;;;;;;10242932;28;20052;-65
2021/01/12 05:30:38;;;;;;;3.45;0.68;;;;;;;;;;10261044;28;20588;-64
2021/01/12 05:35:36;;;;;;;2.45;0.43;;;;;;;;;;10265667;28;20850;-65
2021/01/12 05:40:36;;;;;;;2.67;1.17;;;;;;;;;;10252283;28;20807;-64
2021/01/12 05:45:34;;;;;;;2.22;0.50;;;;;;;;;;10249072;28;20049;-65
2021/01/12 05:50:32;;;;;;;9.73;1.30;;;;;;;;;;10275085;28;20037;-64
2021/01/12 05:55:39;;;;;;;10.68;1.45;;;;;;;;;;10250382;28;20557;-64
2021/01/12 06:00:40;;;;;;;3.53;0.95;;;;;;;;;;10224985;28;20693;-64
2021/01/12 06:05:37;;;;;;;5.75;1.38;;;;;;;;;;10260131;28;20427;-64
2021/01/12 06:10:38;;;;;;;7.50;0.90;;;;;;;;;;10271768;28;20037;-65
2021/01/12 06:15:39;;;;;;;5.40;1.50;;;;;;;;;;10245259;28;20181;-64
2021/01/12 06:20:59;;;;;;;4.38;0.60;;;;;;;;;;10265910;28;20037;-65
2021/01/12 06:25:58;;;;;;;5.25;0.82;;;;;;;;;;10248177;28;20048;-65
2021/01/12 06:30:56;;;;;;;1.92;0.38;;;;;;;;;;10259224;28;20042;-64
2021/01/12 06:35:53;;;;;;;0.30;0.20;;;;;;;;;;10271507;28;20049;-64
2021/01/12 06:40:53;;;;;;;1.30;0.40;;;;;;;;;;10267041;28;20033;-66
2021/01/12 06:45:52;;;;;;;2.10;0.88;;;;;;;;;;10276435;28;20052;-64
2021/01/12 06:50:49;;;;;;;2.85;0.38;;;;;;;;;;10254802;28;20069;-66
2021/01/12 06:55:46;;;;;;;0.60;0.57;;;;;;;;;;10270902;28;20029;-64
2021/01/12 07:00:47;;;;;;;0.43;0.25;;;;;;;;;;10285894;28;20422;-64
2021/01/12 07:05:45;;;;;;;0.20;0.20;;;;;;;;;;10292193;28;20033;-64
2021/01/12 07:10:46;;;;;;;1.60;0.37;;;;;;;;;;10288034;28;20036;-64
2021/01/12 07:15:43;;;;;;;1.30;0.52;;;;;;;;;;10285340;28;20037;-64
2021/01/12 07:20:41;;;;;;;1.83;0.30;;;;;;;;;;10285395;28;20408;-66
2021/01/12 07:25:40;;;;;;;0.50;0.50;;;;;;;;;;10283626;28;20041;-64
2021/01/12 07:30:39;;;;;;;1.77;0.32;;;;;;;;;;10286879;28;20040;-64
2021/01/12 07:35:36;;;;;;;1.63;0.50;;;;;;;;;;10285038;28;20125;-64
2021/01/12 07:40:34;;;;;;;6.07;0.60;;;;;;;;;;10288656;28;20149;-64
2021/01/12 07:45:35;;;;;;;0.30;0.30;;;;;;;;;;10271296;28;20042;-64
2021/01/12 07:50:32;;;;;;;0.60;0.20;;;;;;;;;;10299477;28;20040;-64
2021/01/12 07:55:29;;;;;;;0.37;0.20;;;;;;;;;;10287813;28;20049;-64
2021/01/12 08:00:27;;;;;;;3.50;0.30;;;;;;;;;;10291916;28;20038;-65
2021/01/12 08:05:25;;;;;;;0.95;0.25;;;;;;;;;;10289678;28;20045;-64
2021/01/12 08:10:23;;;;;;;0.30;0.30;;;;;;;;;;10288029;28;20565;-64
2021/01/12 08:15:20;;;;;;;1.77;1.67;;;;;;;;;;10285125;28;20048;-64
2021/01/12 08:20:18;;;;;;;0.20;0.20;;;;;;;;;;10286579;28;20037;-65
2021/01/12 08:25:16;;;;;;;0.40;0.40;;;;;;;;;;10285567;28;20041;-64
2021/01/12 08:30:14;;;;;;;2.00;0.50;;;;;;;;;;10292824;28;20037;-66
2021/01/12 08:35:12;;;;;;;1.95;0.50;;;;;;;;;;10287846;28;20037;-65
2021/01/12 08:40:10;;;;;;;;;;;;;;;;;;10290705;28;20395;-64
2021/01/12 08:45:07;;;;;;;3.10;1.05;;;;;;;;;;10285973;28;19936;-65
2021/01/12 08:50:06;;;;;;;6.93;1.00;;;;;;;;;;10277808;28;20156;-64
2021/01/12 08:55:14;;;;;;;5.72;0.65;;;;;;;;;;10291543;28;20972;-65
2021/01/12 09:00:12;;;;;;;0.40;0.40;;;;;;;;;;10288647;28;20512;-64
2021/01/12 09:05:10;;;;;;;1.83;0.60;;;;;;;;;;10290238;28;20050;-64
2021/01/12 09:10:09;;;;;;;1.35;0.30;;;;;;;;;;10294293;28;20519;-65
2021/01/12 09:15:06;;;;;;;;;;;;;;;;;;10288950;28;20412;-64
2021/01/12 09:20:04;;;;;;;1.15;0.80;;;;;;;;;;10286823;28;19917;-65
2021/01/12 09:25:05;;;;;;;0.37;0.37;;;;;;;;;;10293243;28;20099;-64
2021/01/12 09:30:02;;;;;;;2.75;0.40;;;;;;;;;;10294653;28;20064;-64
2021/01/12 09:35:03;;;;;;;0.70;0.63;;;;;;;;;;10277388;28;20116;-66
2021/01/12 09:40:01;;;;;;;25.13;0.82;;;;;;;;;;10291110;28;20512;-65
2021/01/12 09:44:58;;;;;;;1.00;0.30;;;;;;;;;;10288441;28;20678;-65
2021/01/12 09:49:56;;;;;;;0.20;0.20;;;;;;;;;;10288311;28;20136;-64
2021/01/12 09:54:53;;;;;;;1.60;0.33;;;;;;;;;;10283419;28;20046;-65
2021/01/12 09:59:50;;;;;;;4.50;0.70;;;;;;;;;;10292516;28;20499;-65
2021/01/12 10:04:48;;;;;;;2.17;0.57;;;;;;;;;;10288005;28;20045;-65
2021/01/12 10:09:45;;;;;;;1.03;0.20;;;;;;;;;;10281665;28;20411;-65
2021/01/12 10:14:43;;;;;;;6.60;0.60;;;;;;;;;;10279627;28;20551;-63
2021/01/12 10:19:40;;;;;;;3.60;0.50;;;;;;;;;;10277362;28;20044;-64
2021/01/12 10:24:37;;;;;;;3.23;0.60;;;;;;;;;;10273305;28;20075;-64
2021/01/12 10:29:35;;;;;;;6.23;0.87;;;;;;;;;;10262018;28;20068;-64
2021/01/12 10:34:33;;;;;;;4.90;0.90;;;;;;;;;;10260999;28;20041;-64
2021/01/12 10:39:30;;;;;;;8.43;0.80;;;;;;;;;;10290346;28;20045;-63
2021/01/12 10:44:27;;;;;;;5.63;0.67;;;;;;;;;;10281996;28;20041;-63
2021/01/12 10:49:25;;;;;;;7.03;0.93;;;;;;;;;;10265679;28;20030;-64
2021/01/12 10:54:22;;;;;;;4.30;0.70;;;;;;;;;;10285425;28;20097;-64
2021/01/12 10:59:20;;;;;;;5.60;1.30;;;;;;;;;;10282766;28;20041;-65
2021/01/12 11:04:17;;;;;;;5.47;0.90;;;;;;;;;;10286520;28;20095;-64
2021/01/12 11:09:15;;;;;;;10.33;0.57;;;;;;;;;;10288809;28;20022;-65
2021/01/12 11:14:16;;;;;;;1.47;0.63;;;;;;;;;;10283266;28;20033;-65
2021/01/12 11:19:16;;;;;;;2.90;1.23;;;;;;;;;;10286403;28;20136;-65
2021/01/12 11:24:14;;;;;;;1.08;1.08;;;;;;;;;;10280965;28;20038;-65
2021/01/12 11:29:12;;;;;;;4.22;1.00;;;;;;;;;;10278726;28;20042;-66
2021/01/12 11:34:10;;;;;;;6.03;1.00;;;;;;;;;;10291355;28;20567;-66
2021/01/12 11:39:11;;;;;;;4.70;1.03;;;;;;;;;;10295394;28;20434;-65
2021/01/12 11:44:08;;;;;;;1.75;1.10;;;;;;;;;;10290989;28;20033;-65
2021/01/12 11:49:05;;;;;;;4.93;1.50;;;;;;;;;;10296564;28;20029;-65
2021/01/12 11:54:03;;;;;;;8.90;1.67;;;;;;;;;;10288798;28;20029;-66
2021/01/12 11:59:01;;;;;;;8.75;1.60;;;;;;;;;;10298849;28;20535;-65
2021/01/12 12:03:58;;;;;;;4.57;1.40;;;;;;;;;;10293798;28;20398;-66
2021/01/12 12:08:56;;;;;;;6.97;1.57;;;;;;;;;;10280873;28;20026;-66
2021/01/12 12:13:53;;;;;;;3.33;1.33;;;;;;;;;;10290898;28;20037;-67
2021/01/12 12:18:51;;;;;;;3.73;1.30;;;;;;;;;;10285824;28;20038;-64
2021/01/12 12:23:48;;;;;;;4.40;1.30;;;;;;;;;;10279335;28;20033;-63
2021/01/12 12:28:46;;;;;;;4.67;1.53;;;;;;;;;;10291929;28;20025;-64
2021/01/12 12:33:43;;;;;;;4.73;1.43;;;;;;;;;;10291292;28;20561;-64
2021/01/12 12:38:41;;;;;;;7.97;1.20;;;;;;;;;;10299518;28;20041;-64
2021/01/12 12:43:39;;;;;;;4.75;1.10;;;;;;;;;;10291636;28;20033;-63
2021/01/12 12:48:37;;;;;;;3.33;1.13;;;;;;;;;;10283086;28;20036;-65
2021/01/12 12:53:36;;;;;;;4.37;0.60;;;;;;;;;;10286821;28;20048;-65
2021/01/12 12:58:34;;;;;;;5.15;1.40;;;;;;;;;;10283642;28;20407;-64
2021/01/12 13:03:32;;;;;;;6.45;2.00;;;;;;;;;;10285464;28;20063;-65
2021/01/12 13:08:30;;;;;;;12.37;1.83;;;;;;;;;;10295560;28;20539;-65
2021/01/12 13:13:27;;;;;;;5.10;1.83;;;;;;;;;;10294295;28;20076;-66
2021/01/12 13:18:26;;;;;;;10.07;1.50;;;;;;;;;;10268166;28;20128;-64
2021/01/12 13:23:24;;;;;;;6.32;1.40;;;;;;;;;;10285009;28;20045;-64
2021/01/12 13:28:22;;;;;;;3.15;1.15;;;;;;;;;;10261502;28;20049;-64
2021/01/12 13:33:19;;;;;;;8.73;1.40;;;;;;;;;;10288839;28;20491;-65
2021/01/12 13:38:17;;;;;;;11.53;2.10;;;;;;;;;;10296622;28;20560;-65
2021/01/12 13:43:14;;;;;;;11.07;2.07;;;;;;;;;;10281426;28;20041;-65
2021/01/12 13:48:13;;;;;;;3.63;1.23;;;;;;;;;;10288140;28;20092;-64
2021/01/12 13:53:12;;;;;;;10.95;1.35;;;;;;;;;;10280565;28;20069;-64
2021/01/12 13:58:10;;;;;;;5.15;1.77;;;;;;;;;;10284608;28;20511;-65
2021/01/12 14:03:08;;;;;;;0.57;0.45;;;;;;;;;;10275210;28;20038;-64
2021/01/12 14:08:06;;;;;;;6.20;1.00;;;;;;;;;;10285428;28;20038;-65
2021/01/12 14:13:03;;;;;;;5.57;0.90;;;;;;;;;;10271903;28;20037;-65
2021/01/12 14:18:04;;;;;;;2.37;0.47;;;;;;;;;;10281376;28;20116;-66
2021/01/12 14:23:02;;;;;;;4.88;0.63;;;;;;;;;;10276270;28;20044;-65
2021/01/12 14:27:59;;;;;;;1.87;0.47;;;;;;;;;;10280726;28;20045;-64
2021/01/12 14:32:57;;;;;;;2.73;0.77;;;;;;;;;;10276843;28;20099;-65
2021/01/12 14:37:59;;;;;;;2.10;0.63;;;;;;;;;;10294812;28;20044;-65
2021/01/12 14:42:57;;;;;;;3.20;1.15;;;;;;;;;;10302626;28;20095;-65
2021/01/12 14:47:55;;;;;;;5.60;1.27;;;;;;;;;;10290883;28;20049;-65
2021/01/12 14:52:53;;;;;;;;;;;;;;;;;;10273495;28;20033;-64
2021/01/12 14:57:50;;;;;;;1.65;0.60;;;;;;;;;;10266435;28;19920;-65
2021/01/12 15:02:47;;;;;;;5.33;1.00;;;;;;;;;;10275495;28;20099;-65
2021/01/12 15:07:46;;;;;;;4.07;1.00;;;;;;;;;;10282608;28;20519;-64
2021/01/12 15:12:43;;;;;;;0.50;0.50;;;;;;;;;;10259752;28;20115;-67
2021/01/12 15:17:41;;;;;;;3.73;0.60;;;;;;;;;;10236422;28;20799;-65
2021/01/12 15:22:39;;;;;;;3.43;1.33;;;;;;;;;;10242949;28;20154;-64
2021/01/12 15:27:36;;;;;;;8.40;1.08;;;;;;;;;;10257110;28;20490;-64
2021/01/12 15:32:34;;;;;;;4.90;0.93;;;;;;;;;;10263616;28;20057;-65
2021/01/12 15:37:33;;;;;;;3.00;0.60;;;;;;;;;;10283261;28;20052;-65
2021/01/12 15:42:30;;;;;;;1.23;0.60;;;;;;;;;;10257858;28;20050;-65
2021/01/12 15:47:27;;;;;;;1.40;0.60;;;;;;;;;;10257741;28;20053;-65
2021/01/12 15:52:25;;;;;;;2.00;0.77;;;;;;;;;;10266511;28;20077;-65
2021/01/12 15:57:23;;;;;;;4.50;0.50;;;;;;;;;;10264891;28;20515;-66
2021/01/12 16:02:20;;;;;;;1.45;1.20;;;;;;;;;;10280711;28;20843;-66
2021/01/12 16:07:19;;;;;;;3.60;0.63;;;;;;;;;;10257814;28;20950;-65
2021/01/12 16:12:17;;;;;;;1.80;0.50;;;;;;;;;;10254970;28;20041;-65
2021/01/12 16:17:16;;;;;;;3.65;0.85;;;;;;;;;;10264369;28;20045;-66
2021/01/12 16:22:15;;;;;;;2.08;0.45;;;;;;;;;;10268656;28;20048;-66
2021/01/12 16:27:13;;;;;;;0.30;0.30;;;;;;;;;;10270718;28;20076;-65
2021/01/12 16:32:11;;;;;;;8.90;0.47;;;;;;;;;;10270494;28;20047;-67
2021/01/12 16:37:09;;;;;;;;;;;;;;;;;;10269261;28;20152;-64
2021/01/12 16:42:10;;;;;;;3.65;1.13;;;;;;;;;;10260242;28;19921;-65
2021/01/12 16:47:09;;;;;;;5.20;1.80;;;;;;;;;;10266173;28;20053;-65
2021/01/12 16:52:10;;;;;;;4.10;0.80;;;;;;;;;;10266771;28;20504;-64
2021/01/12 16:57:34;;;;;;;11.98;1.45;;;;;;;;;;10285075;28;20492;-65
2021/01/12 17:02:47;;;;;;;6.10;0.70;;;;;;;;;;10295126;28;20132;-64
2021/01/12 17:07:53;;;;;;;5.60;0.93;;;;;;;;;;10293541;28;20072;-64
2021/01/12 17:13:02;;;;;;;9.20;2.47;;;;;;;;;;10288823;28;20036;-64
2021/01/12 17:18:03;;;;;;;2.70;0.90;;;;;;;;;;10291119;28;20040;-66
2021/01/12 17:23:05;;;;;;;7.45;1.58;;;;;;;;;;10290188;28;20045;-65
2021/01/12 17:28:05;;;;;;;12.65;2.25;;;;;;;;;;10286432;28;20168;-65
2021/01/12 17:33:04;;;;;;;12.48;1.70;;;;;;;;;;10291276;28;20037;-64
2021/01/12 17:38:07;;;;;;;15.35;2.38;;;;;;;;;;10287441;28;20029;-66
2021/01/12 17:43:28;;;;;;;3.03;1.17;;;;;;;;;;10284610;28;20072;-64
2021/01/12 17:48:34;;;;;;;6.55;0.85;;;;;;;;;;10277973;28;20041;-65
2021/01/12 17:53:45;;;;;;;7.10;1.10;;;;;;;;;;10288008;28;20640;-64
2021/01/12 17:59:02;;;;;;;9.97;1.83;;;;;;;;;;10289870;28;20087;-65
2021/01/12 18:04:15;;;;;;;8.60;1.42;;;;;;;;;;10288398;28;20045;-65
2021/01/12 18:09:17;;;;;;;6.50;1.58;;;;;;;;;;10289688;28;20033;-64
2021/01/12 18:14:15;;;;;;;7.65;1.55;;;;;;;;;;10289105;28;20038;-64
2021/01/12 18:19:13;;;;;;;8.60;1.47;;;;;;;;;;10281304;28;20041;-65
2021/01/12 18:24:14;;;;;;;3.42;1.05;;;;;;;;;;10299128;28;20120;-65
2021/01/12 18:29:24;;;;;;;10.07;2.05;;;;;;;;;;10290567;28;20083;-64
2021/01/12 18:34:25;;;;;;;8.88;2.53;;;;;;;;;;10290805;28;20029;-65
2021/01/12 18:39:24;;;;;;;9.07;1.20;;;;;;;;;;10286921;28;20037;-65
2021/01/12 18:44:26;;;;;;;8.30;2.30;;;;;;;;;;10290348;28;20103;-64
2021/01/12 18:49:36;;;;;;;6.72;1.75;;;;;;;;;;10290491;28;20424;-66
2021/01/12 18:54:34;;;;;;;5.25;1.58;;;;;;;;;;10281876;28;20025;-65
2021/01/12 18:59:31;;;;;;;6.90;1.30;;;;;;;;;;10290107;28;20071;-64
2021/01/12 19:04:29;;;;;;;8.27;1.97;;;;;;;;;;10290345;28;20565;-65
2021/01/12 19:09:27;;;;;;;6.13;1.17;;;;;;;;;;10288360;28;20041;-65
2021/01/12 19:14:24;;;;;;;4.28;1.05;;;;;;;;;;10282189;28;20415;-65
2021/01/12 19:19:22;;;;;;;18.63;3.63;;;;;;;;;;10276324;28;20423;-65
2021/01/12 19:24:19;;;;;;;3.70;0.93;;;;;;;;;;10282505;28;20034;-64
2021/01/12 19:29:17;;;;;;;18.70;3.43;;;;;;;;;;10289648;28;20053;-64
2021/01/12 19:34:20;;;;;;;11.57;1.23;;;;;;;;;;10285860;28;20033;-64
2021/01/12 19:39:17;;;;;;;15.65;1.42;;;;;;;;;;10287846;28;20145;-65
2021/01/12 19:44:17;;;;;;;5.77;1.27;;;;;;;;;;10281805;28;20591;-65
2021/01/12 19:49:15;;;;;;;12.45;2.33;;;;;;;;;;10297740;28;20041;-64
2021/01/12 19:54:13;;;;;;;12.43;2.17;;;;;;;;;;10308952;28;20063;-64
2021/01/12 19:59:11;;;;;;;7.30;1.98;;;;;;;;;;10290721;28;20041;-65
2021/01/12 20:04:09;;;;;;;11.23;2.27;;;;;;;;;;10290147;28;20034;-65
2021/01/12 20:09:06;;;;;;;13.48;2.00;;;;;;;;;;10294965;28;20053;-65
2021/01/12 20:14:05;;;;;;;7.73;1.67;;;;;;;;;;10298271;28;20416;-65
2021/01/12 20:19:03;;;;;;;15.20;2.35;;;;;;;;;;10299337;28;20337;-64
2021/01/12 20:24:03;;;;;;;6.57;1.95;;;;;;;;;;10296409;28;20028;-65
2021/01/12 20:29:01;;;;;;;6.32;2.45;;;;;;;;;;10296245;28;20057;-65
2021/01/12 20:33:59;;;;;;;4.70;1.27;;;;;;;;;;10294577;28;20037;-65
2021/01/12 20:38:56;;;;;;;8.13;1.00;;;;;;;;;;10290598;28;20056;-65
2021/01/12 20:43:56;;;;;;;8.87;1.57;;;;;;;;;;10291934;28;20037;-65
2021/01/12 20:48:54;;;;;;;15.73;2.58;;;;;;;;;;10290698;28;20041;-65
2021/01/12 20:53:54;;;;;;;14.35;1.92;;;;;;;;;;10300344;28;20556;-65
2021/01/12 20:58:52;;;;;;;17.67;2.83;;;;;;;;;;10291594;28;20049;-65
2021/01/12 21:03:49;;;;;;;8.10;1.60;;;;;;;;;;10284246;28;20380;-67
2021/01/12 21:08:49;;;;;;;5.40;0.98;;;;;;;;;;10289668;28;20049;-65
2021/01/12 21:13:46;;;;;;;4.83;1.43;;;;;;;;;;10310763;28;20037;-65
2021/01/12 21:18:43;;;;;;;4.43;1.00;;;;;;;;;;10295992;28;20041;-65
2021/01/12 21:23:41;;;;;;;5.27;0.70;;;;;;;;;;10286231;28;21482;-65
2021/01/12 21:28:38;;;;;;;3.33;1.23;;;;;;;;;;10287648;28;20416;-65
2021/01/12 21:33:36;;;;;;;1.77;0.93;;;;;;;;;;10290953;28;20056;-66
2021/01/12 21:38:35;;;;;;;5.03;1.17;;;;;;;;;;10291274;28;20361;-65
2021/01/12 21:43:32;;;;;;;14.52;2.80;;;;;;;;;;10280319;28;20040;-65
2021/01/12 21:48:32;;;;;;;11.20;2.87;;;;;;;;;;10284830;28;20052;-67
2021/01/12 21:53:29;;;;;;;7.95;1.10;;;;;;;;;;10288361;28;20288;-65
2021/01/12 21:58:27;;;;;;;10.73;1.50;;;;;;;;;;10301959;28;20038;-65
2021/01/12 22:03:24;;;;;;;8.17;1.87;;;;;;;;;;10282883;28;20037;-65
2021/01/12 22:08:21;;;;;;;9.53;1.17;;;;;;;;;;10290189;28;20072;-65
2021/01/12 22:13:19;;;;;;;9.63;1.30;;;;;;;;;;10279214;28;20038;-66
2021/01/12 22:18:16;;;;;;;7.70;1.23;;;;;;;;;;10284925;28;20145;-65
2021/01/12 22:23:14;;;;;;;2.40;1.27;;;;;;;;;;10291893;28;20411;-65
2021/01/12 22:28:11;;;;;;;8.03;1.07;;;;;;;;;;10287843;28;20041;-65
2021/01/12 22:33:08;;;;;;;6.07;1.10;;;;;;;;;;10292520;28;20111;-66
2021/01/12 22:38:06;;;;;;;5.70;1.13;;;;;;;;;;10282640;28;20124;-65
2021/01/12 22:43:04;;;;;;;4.67;1.50;;;;;;;;;;10276828;28;20041;-66
2021/01/12 22:48:03;;;;;;;7.37;1.13;;;;;;;;;;10286065;28;20048;-65
2021/01/12 22:53:01;;;;;;;8.65;1.75;;;;;;;;;;10286750;28;20038;-64
2021/01/12 22:57:59;;;;;;;10.23;1.67;;;;;;;;;;10272187;28;20445;-64
2021/01/12 23:02:57;;;;;;;5.03;1.17;;;;;;;;;;10266880;28;20095;-64
2021/01/12 23:07:55;;;;;;;6.32;0.90;;;;;;;;;;10288133;28;20418;-65
2021/01/12 23:12:53;;;;;;;6.68;1.55;;;;;;;;;;10249822;28;20411;-65
2021/01/12 23:17:52;;;;;;;7.28;1.10;;;;;;;;;;10271879;28;20029;-65
2021/01/12 23:22:50;;;;;;;4.10;0.93;;;;;;;;;;10268424;28;20107;-64
2021/01/12 23:27:49;;;;;;;9.07;1.35;;;;;;;;;;10264584;28;20595;-65
2021/01/12 23:32:47;;;;;;;4.32;1.30;;;;;;;;;;10282030;28;20100;-62
2021/01/12 23:37:44;;;;;;;15.00;1.70;;;;;;;;;;10293748;28;20045;-64
2021/01/12 23:42:42;;;;;;;4.07;1.40;;;;;;;;;;10281977;28;20050;-64
2021/01/12 23:47:43;;;;;;;13.57;1.80;;;;;;;;;;10273395;28;20172;-64
2021/01/12 23:52:40;;;;;;;6.50;1.92;;;;;;;;;;10280581;28;20053;-63
2021/01/12 23:57:38;;;;;;;7.40;1.70;;;;;;;;;;10274816;28;20056;-64
